sensor_id;sensor_type;location;lat;lon;timestamp;pressure;altitude;pressure_sealevel;temperature;humidity
11936;BME280;6027;48.576;9.180;2022-12-16T00:01:31;95545.13;;;-1.12;100.00
11936;BME280;6027;48.576;9.180;2022-12-16T00:03:57;95539.00;;;-1.11;100.00
11936;BME280;6027;48.576;9.180;2022-12-16T00:06:25;95540.00;;;-1.22;100.00
11936;BME280;6027;48.576;9.180;2022-12-16T00:08:51;95546.09;;;-1.13;100.00
11936;BME280;6027;48.576;9.180;2022-12-16T00:11:16;95551.16;;;-1.12;100.00
11936;BME280;6027;48.576;9.180;2022-12-16T00:13:42;95543.81;;;-1.16;100.00
11936;BME280;6027;48.576;9.180;2022-12-16T00:16:11;95541.22;;;-1.16;100.00
11936;BME280;6027;48.576;9.180;2022-12-16T00:18:36;95541.50;;;-1.19;100.00
11936;BME280;6027;48.576;9.180;2022-12-16T00:21:03;95541.22;;;-1.16;100.00
11936;BME280;6027;48.576;9.180;2022-12-16T00:23:29;95542.19;;;-1.17;100.00
11936;BME280;6027;48.576;9.180;2022-12-16T00:25:54;95536.03;;;-1.16;100.00
11936;BME280;6027;48.576;9.180;2022-12-16T00:28:20;95539.88;;;-1.20;100.00
11936;BME280;6027;48.576;9.180;2022-12-16T00:30:48;95536.97;;;-1.17;100.00
11936;BME280;6027;48.576;9.180;2022-12-16T00:33:15;95536.38;;;-1.01;100.00
11936;BME280;6027;48.576;9.180;2022-12-16T00:35:41;95536.53;;;-1.13;100.00
11936;BME280;6027;48.576;9.180;2022-12-16T00:38:07;95537.25;;;-1.20;100.00
11936;BME280;6027;48.576;9.180;2022-12-16T00:40:33;95534.88;;;-1.04;100.00
11936;BME280;6027;48.576;9.180;2022-12-16T00:42:59;95534.66;;;-1.20;100.00
11936;BME280;6027;48.576;9.180;2022-12-16T00:45:24;95537.06;;;-1.09;100.00
11936;BME280;6027;48.576;9.180;2022-12-16T00:47:50;95541.03;;;-1.15;100.00
11936;BME280;6027;48.576;9.180;2022-12-16T00:50:16;95540.41;;;-1.17;100.00
11936;BME280;6027;48.576;9.180;2022-12-16T00:52:41;95546.09;;;-1.13;100.00
11936;BME280;6027;48.576;9.180;2022-12-16T00:55:07;95549.50;;;-1.13;100.00
11936;BME280;6027;48.576;9.180;2022-12-16T00:57:33;95558.72;;;-1.18;100.00
11936;BME280;6027;48.576;9.180;2022-12-16T00:59:58;95554.50;;;-1.29;100.00
11936;BME280;6027;48.576;9.180;2022-12-16T01:02:24;95560.09;;;-1.33;100.00
11936;BME280;6027;48.576;9.180;2022-12-16T01:04:49;95555.72;;;-1.23;100.00
11936;BME280;6027;48.576;9.180;2022-12-16T01:07:15;95562.56;;;-1.32;100.00
11936;BME280;6027;48.576;9.180;2022-12-16T01:09:41;95563.66;;;-1.34;100.00
11936;BME280;6027;48.576;9.180;2022-12-16T01:12:07;95556.03;;;-1.36;100.00
11936;BME280;6027;48.576;9.180;2022-12-16T01:14:32;95563.66;;;-1.25;100.00
11936;BME280;6027;48.576;9.180;2022-12-16T01:16:58;95563.50;;;-1.23;100.00
11936;BME280;6027;48.576;9.180;2022-12-16T01:19:23;95571.44;;;-1.34;100.00
11936;BME280;6027;48.576;9.180;2022-12-16T01:21:49;95576.81;;;-1.36;100.00
11936;BME280;6027;48.576;9.180;2022-12-16T01:24:14;95573.41;;;-1.36;100.00
11936;BME280;6027;48.576;9.180;2022-12-16T01:26:39;95579.41;;;-1.46;100.00
11936;BME280;6027;48.576;9.180;2022-12-16T01:29:05;95585.25;;;-1.34;100.00
11936;BME280;6027;48.576;9.180;2022-12-16T01:31:31;95587.44;;;-1.29;100.00
11936;BME280;6027;48.576;9.180;2022-12-16T01:33:56;95599.19;;;-1.25;100.00
11936;BME280;6027;48.576;9.180;2022-12-16T01:36:22;95605.75;;;-1.31;100.00
11936;BME280;6027;48.576;9.180;2022-12-16T01:38:48;95612.19;;;-1.35;100.00
11936;BME280;6027;48.576;9.180;2022-12-16T01:41:15;95606.56;;;-1.30;100.00
11936;BME280;6027;48.576;9.180;2022-12-16T01:43:42;95608.09;;;-1.37;100.00
11936;BME280;6027;48.576;9.180;2022-12-16T01:48:56;95610.97;;;-1.41;100.00
11936;BME280;6027;48.576;9.180;2022-12-16T01:51:27;95613.81;;;-1.34;100.00
11936;BME280;6027;48.576;9.180;2022-12-16T01:53:58;95613.66;;;-1.32;100.00
11936;BME280;6027;48.576;9.180;2022-12-16T01:56:27;95608.91;;;-1.37;100.00
11936;BME280;6027;48.576;9.180;2022-12-16T01:58:55;95616.44;;;-1.44;100.00
11936;BME280;6027;48.576;9.180;2022-12-16T02:01:21;95616.25;;;-1.32;100.00
11936;BME280;6027;48.576;9.180;2022-12-16T02:03:47;95618.03;;;-1.33;100.00
11936;BME280;6027;48.576;9.180;2022-12-16T02:06:14;95618.47;;;-1.37;100.00
11936;BME280;6027;48.576;9.180;2022-12-16T02:08:40;95627.22;;;-1.38;100.00
11936;BME280;6027;48.576;9.180;2022-12-16T02:11:27;95618.34;;;-1.36;100.00
11936;BME280;6027;48.576;9.180;2022-12-16T02:33:13;95629.97;;;-1.50;100.00
11936;BME280;6027;48.576;9.180;2022-12-16T02:36:06;95630.38;;;-1.45;100.00
11936;BME280;6027;48.576;9.180;2022-12-16T02:46:16;95643.75;;;-1.49;100.00
11936;BME280;6027;48.576;9.180;2022-12-16T02:48:42;95640.47;;;-1.42;100.00
11936;BME280;6027;48.576;9.180;2022-12-16T02:51:08;95643.75;;;-1.49;100.00
11936;BME280;6027;48.576;9.180;2022-12-16T02:53:36;95645.81;;;-1.53;100.00
11936;BME280;6027;48.576;9.180;2022-12-16T02:56:05;95654.13;;;-1.49;100.00
11936;BME280;6027;48.576;9.180;2022-12-16T03:01:29;95655.81;;;-1.58;100.00
11936;BME280;6027;48.576;9.180;2022-12-16T03:04:20;95648.81;;;-1.48;100.00
11936;BME280;6027;48.576;9.180;2022-12-16T03:06:52;95651.13;;;-1.45;100.00
11936;BME280;6027;48.576;9.180;2022-12-16T03:09:23;95656.34;;;-1.54;100.00
11936;BME280;6027;48.576;9.180;2022-12-16T03:11:51;95661.66;;;-1.65;100.00
11936;BME280;6027;48.576;9.180;2022-12-16T03:14:21;95673.69;;;-1.55;100.00
11936;BME280;6027;48.576;9.180;2022-12-16T03:16:48;95660.28;;;-1.50;100.00
11936;BME280;6027;48.576;9.180;2022-12-16T03:19:14;95664.66;;;-1.41;100.00
11936;BME280;6027;48.576;9.180;2022-12-16T03:21:48;95658.66;;;-1.42;100.00
11936;BME280;6027;48.576;9.180;2022-12-16T03:24:16;95664.25;;;-1.36;100.00
11936;BME280;6027;48.576;9.180;2022-12-16T03:29:16;95668.75;;;-1.38;100.00
11936;BME280;6027;48.576;9.180;2022-12-16T03:31:50;95665.63;;;-1.42;100.00
11936;BME280;6027;48.576;9.180;2022-12-16T03:37:05;95661.78;;;-1.38;100.00
11936;BME280;6027;48.576;9.180;2022-12-16T03:39:38;95667.81;;;-1.47;100.00
11936;BME280;6027;48.576;9.180;2022-12-16T03:42:06;95677.88;;;-1.34;100.00
11936;BME280;6027;48.576;9.180;2022-12-16T03:44:34;95679.69;;;-1.45;100.00
11936;BME280;6027;48.576;9.180;2022-12-16T03:46:59;95682.81;;;-1.51;100.00
11936;BME280;6027;48.576;9.180;2022-12-16T03:49:25;95692.13;;;-1.48;100.00
11936;BME280;6027;48.576;9.180;2022-12-16T03:51:52;95691.16;;;-1.47;100.00
11936;BME280;6027;48.576;9.180;2022-12-16T03:54:19;95694.03;;;-1.50;100.00
11936;BME280;6027;48.576;9.180;2022-12-16T03:56:45;95693.75;;;-1.37;100.00
11936;BME280;6027;48.576;9.180;2022-12-16T03:59:10;95699.47;;;-1.53;100.00
11936;BME280;6027;48.576;9.180;2022-12-16T04:01:35;95704.56;;;-1.61;100.00
11936;BME280;6027;48.576;9.180;2022-12-16T04:04:22;95700.75;;;-1.57;100.00
11936;BME280;6027;48.576;9.180;2022-12-16T04:07:08;95700.88;;;-1.59;100.00
11936;BME280;6027;48.576;9.180;2022-12-16T04:10:06;95706.72;;;-1.47;100.00
11936;BME280;6027;48.576;9.180;2022-12-16T04:12:51;95711.25;;;-1.59;100.00
11936;BME280;6027;48.576;9.180;2022-12-16T04:15:55;95705.50;;;-1.53;100.00
11936;BME280;6027;48.576;9.180;2022-12-16T04:18:44;95715.34;;;-1.56;100.00
11936;BME280;6027;48.576;9.180;2022-12-16T04:21:49;95724.63;;;-1.63;100.00
11936;BME280;6027;48.576;9.180;2022-12-16T04:24:54;95729.13;;;-1.65;100.00
11936;BME280;6027;48.576;9.180;2022-12-16T04:27:39;95722.84;;;-1.63;100.00
11936;BME280;6027;48.576;9.180;2022-12-16T04:30:31;95727.34;;;-1.65;100.00
11936;BME280;6027;48.576;9.180;2022-12-16T04:33:05;95730.50;;;-1.61;100.00
11936;BME280;6027;48.576;9.180;2022-12-16T04:35:50;95727.38;;;-1.55;100.00
11936;BME280;6027;48.576;9.180;2022-12-16T04:38:34;95726.28;;;-1.62;100.00
11936;BME280;6027;48.576;9.180;2022-12-16T04:41:18;95734.44;;;-1.67;100.00
11936;BME280;6027;48.576;9.180;2022-12-16T04:44:03;95735.28;;;-1.66;100.00
11936;BME280;6027;48.576;9.180;2022-12-16T04:46:47;95738.94;;;-1.69;100.00
11936;BME280;6027;48.576;9.180;2022-12-16T04:49:31;95744.28;;;-1.80;100.00
11936;BME280;6027;48.576;9.180;2022-12-16T04:52:15;95745.66;;;-1.76;100.00
11936;BME280;6027;48.576;9.180;2022-12-16T04:55:00;95751.38;;;-1.73;100.00
11936;BME280;6027;48.576;9.180;2022-12-16T04:57:48;95757.66;;;-1.65;100.00
11936;BME280;6027;48.576;9.180;2022-12-16T05:00:32;95759.31;;;-1.74;100.00
11936;BME280;6027;48.576;9.180;2022-12-16T05:03:16;95766.94;;;-1.73;100.00
11936;BME280;6027;48.576;9.180;2022-12-16T05:06:00;95763.25;;;-1.70;100.00
11936;BME280;6027;48.576;9.180;2022-12-16T05:08:44;95767.22;;;-1.66;100.00
11936;BME280;6027;48.576;9.180;2022-12-16T05:11:28;95767.91;;;-1.73;100.00
11936;BME280;6027;48.576;9.180;2022-12-16T05:14:13;95772.53;;;-1.77;100.00
11936;BME280;6027;48.576;9.180;2022-12-16T05:16:57;95779.50;;;-1.78;100.00
11936;BME280;6027;48.576;9.180;2022-12-16T05:19:41;95779.34;;;-1.86;100.00
11936;BME280;6027;48.576;9.180;2022-12-16T05:22:25;95787.97;;;-1.76;100.00
11936;BME280;6027;48.576;9.180;2022-12-16T05:25:09;95790.94;;;-1.90;100.00
11936;BME280;6027;48.576;9.180;2022-12-16T05:27:53;95797.38;;;-1.84;100.00
11936;BME280;6027;48.576;9.180;2022-12-16T05:30:37;95799.00;;;-1.83;100.00
11936;BME280;6027;48.576;9.180;2022-12-16T05:33:21;95805.31;;;-1.76;100.00
11936;BME280;6027;48.576;9.180;2022-12-16T05:36:05;95810.63;;;-1.78;100.00
11936;BME280;6027;48.576;9.180;2022-12-16T05:38:51;95813.75;;;-1.84;100.00
11936;BME280;6027;48.576;9.180;2022-12-16T05:41:35;95813.63;;;-1.82;100.00
11936;BME280;6027;48.576;9.180;2022-12-16T05:44:20;95820.34;;;-1.70;100.00
11936;BME280;6027;48.576;9.180;2022-12-16T05:47:05;95826.22;;;-1.68;100.00
11936;BME280;6027;48.576;9.180;2022-12-16T05:49:53;95822.78;;;-1.78;100.00
11936;BME280;6027;48.576;9.180;2022-12-16T05:52:37;95823.94;;;-1.92;100.00
11936;BME280;6027;48.576;9.180;2022-12-16T05:55:26;95827.28;;;-1.80;100.00
11936;BME280;6027;48.576;9.180;2022-12-16T05:58:10;95833.91;;;-1.97;100.00
11936;BME280;6027;48.576;9.180;2022-12-16T06:00:54;95831.59;;;-2.00;100.00
11936;BME280;6027;48.576;9.180;2022-12-16T06:03:38;95828.88;;;-1.98;100.00
11936;BME280;6027;48.576;9.180;2022-12-16T06:06:22;95838.31;;;-1.88;100.00
11936;BME280;6027;48.576;9.180;2022-12-16T06:09:07;95838.03;;;-1.94;100.00
11936;BME280;6027;48.576;9.180;2022-12-16T06:11:51;95845.41;;;-1.90;100.00
11936;BME280;6027;48.576;9.180;2022-12-16T06:14:45;95852.91;;;-1.96;100.00
11936;BME280;6027;48.576;9.180;2022-12-16T06:17:29;95850.06;;;-1.93;100.00
11936;BME280;6027;48.576;9.180;2022-12-16T06:20:13;95868.50;;;-1.87;100.00
11936;BME280;6027;48.576;9.180;2022-12-16T06:22:57;95877.41;;;-1.80;100.00
11936;BME280;6027;48.576;9.180;2022-12-16T06:25:41;95881.44;;;-1.96;100.00
11936;BME280;6027;48.576;9.180;2022-12-16T06:28:26;95888.84;;;-1.82;100.00
11936;BME280;6027;48.576;9.180;2022-12-16T06:31:10;95885.06;;;-1.78;100.00
11936;BME280;6027;48.576;9.180;2022-12-16T06:33:54;95900.38;;;-1.75;100.00
11936;BME280;6027;48.576;9.180;2022-12-16T06:36:38;95900.75;;;-1.80;100.00
11936;BME280;6027;48.576;9.180;2022-12-16T06:39:22;95902.44;;;-1.99;100.00
11936;BME280;6027;48.576;9.180;2022-12-16T06:42:06;95906.41;;;-1.95;100.00
11936;BME280;6027;48.576;9.180;2022-12-16T06:44:54;95913.66;;;-2.20;100.00
11936;BME280;6027;48.576;9.180;2022-12-16T06:47:40;95923.66;;;-2.15;100.00
11936;BME280;6027;48.576;9.180;2022-12-16T06:50:25;95924.63;;;-2.06;100.00
11936;BME280;6027;48.576;9.180;2022-12-16T06:53:09;95936.16;;;-1.99;100.00
11936;BME280;6027;48.576;9.180;2022-12-16T06:55:53;95926.59;;;-1.99;100.00
11936;BME280;6027;48.576;9.180;2022-12-16T06:58:37;95943.41;;;-1.93;100.00
11936;BME280;6027;48.576;9.180;2022-12-16T07:01:21;95943.06;;;-1.79;100.00
11936;BME280;6027;48.576;9.180;2022-12-16T07:04:05;95950.91;;;-1.90;100.00
11936;BME280;6027;48.576;9.180;2022-12-16T07:06:49;95954.22;;;-1.88;100.00
11936;BME280;6027;48.576;9.180;2022-12-16T07:09:33;95958.06;;;-1.83;100.00
11936;BME280;6027;48.576;9.180;2022-12-16T07:12:18;95967.25;;;-1.79;100.00
11936;BME280;6027;48.576;9.180;2022-12-16T07:15:02;95969.84;;;-1.79;100.00
11936;BME280;6027;48.576;9.180;2022-12-16T07:17:46;95972.38;;;-1.88;100.00
11936;BME280;6027;48.576;9.180;2022-12-16T07:20:29;95981.81;;;-1.87;100.00
11936;BME280;6027;48.576;9.180;2022-12-16T07:23:14;95990.03;;;-1.82;100.00
11936;BME280;6027;48.576;9.180;2022-12-16T07:25:58;95981.41;;;-1.83;100.00
11936;BME280;6027;48.576;9.180;2022-12-16T07:28:41;95996.38;;;-1.96;100.00
11936;BME280;6027;48.576;9.180;2022-12-16T07:31:25;95998.13;;;-1.96;100.00
11936;BME280;6027;48.576;9.180;2022-12-16T07:34:09;96005.59;;;-1.82;100.00
11936;BME280;6027;48.576;9.180;2022-12-16T07:36:54;96006.09;;;-1.88;100.00
11936;BME280;6027;48.576;9.180;2022-12-16T07:39:38;96015.66;;;-1.89;100.00
11936;BME280;6027;48.576;9.180;2022-12-16T07:42:22;96018.44;;;-1.81;100.00
11936;BME280;6027;48.576;9.180;2022-12-16T07:45:07;96012.69;;;-1.84;100.00
11936;BME280;6027;48.576;9.180;2022-12-16T07:47:52;96022.22;;;-1.85;100.00
11936;BME280;6027;48.576;9.180;2022-12-16T07:50:36;96024.00;;;-1.85;100.00
11936;BME280;6027;48.576;9.180;2022-12-16T07:53:21;96028.44;;;-1.76;100.00
11936;BME280;6027;48.576;9.180;2022-12-16T07:56:06;96031.22;;;-1.89;100.00
11936;BME280;6027;48.576;9.180;2022-12-16T07:58:50;96035.06;;;-1.83;100.00
11936;BME280;6027;48.576;9.180;2022-12-16T08:01:34;96039.44;;;-1.84;100.00
11936;BME280;6027;48.576;9.180;2022-12-16T08:04:18;96051.47;;;-1.83;100.00
11936;BME280;6027;48.576;9.180;2022-12-16T08:07:02;96049.19;;;-1.76;100.00
11936;BME280;6027;48.576;9.180;2022-12-16T08:09:46;96059.13;;;-1.81;100.00
11936;BME280;6027;48.576;9.180;2022-12-16T08:12:30;96065.63;;;-1.87;100.00
11936;BME280;6027;48.576;9.180;2022-12-16T08:15:14;96069.94;;;-1.76;100.00
11936;BME280;6027;48.576;9.180;2022-12-16T08:17:58;96069.16;;;-1.88;100.00
11936;BME280;6027;48.576;9.180;2022-12-16T08:20:43;96074.06;;;-1.94;100.00
11936;BME280;6027;48.576;9.180;2022-12-16T08:23:27;96070.53;;;-1.93;100.00
11936;BME280;6027;48.576;9.180;2022-12-16T08:26:11;96074.53;;;-2.00;100.00
11936;BME280;6027;48.576;9.180;2022-12-16T08:28:55;96073.38;;;-2.08;100.00
11936;BME280;6027;48.576;9.180;2022-12-16T08:31:39;96090.66;;;-2.18;100.00
11936;BME280;6027;48.576;9.180;2022-12-16T08:34:23;96089.59;;;-2.26;100.00
11936;BME280;6027;48.576;9.180;2022-12-16T08:37:07;96086.78;;;-2.23;100.00
11936;BME280;6027;48.576;9.180;2022-12-16T08:39:51;96091.84;;;-2.22;100.00
11936;BME280;6027;48.576;9.180;2022-12-16T08:42:35;96085.72;;;-2.21;100.00
11936;BME280;6027;48.576;9.180;2022-12-16T08:45:19;96105.34;;;-2.07;100.00
11936;BME280;6027;48.576;9.180;2022-12-16T08:48:04;96096.78;;;-2.19;100.00
11936;BME280;6027;48.576;9.180;2022-12-16T08:50:48;96111.59;;;-2.10;100.00
11936;BME280;6027;48.576;9.180;2022-12-16T08:53:32;96123.16;;;-2.14;100.00
11936;BME280;6027;48.576;9.180;2022-12-16T08:56:16;96121.72;;;-2.06;100.00
11936;BME280;6027;48.576;9.180;2022-12-16T08:59:01;96125.66;;;-2.23;100.00
11936;BME280;6027;48.576;9.180;2022-12-16T09:01:44;96135.91;;;-2.22;100.00
11936;BME280;6027;48.576;9.180;2022-12-16T09:04:29;96136.22;;;-2.04;100.00
11936;BME280;6027;48.576;9.180;2022-12-16T09:07:17;96142.22;;;-2.03;100.00
11936;BME280;6027;48.576;9.180;2022-12-16T09:10:01;96142.63;;;-2.19;100.00
11936;BME280;6027;48.576;9.180;2022-12-16T09:12:45;96136.81;;;-2.12;100.00
11936;BME280;6027;48.576;9.180;2022-12-16T09:15:29;96156.38;;;-2.08;100.00
11936;BME280;6027;48.576;9.180;2022-12-16T09:18:14;96155.03;;;-2.34;100.00
11936;BME280;6027;48.576;9.180;2022-12-16T09:20:59;96165.47;;;-2.13;100.00
11936;BME280;6027;48.576;9.180;2022-12-16T09:23:43;96160.41;;;-2.15;100.00
11936;BME280;6027;48.576;9.180;2022-12-16T09:26:28;96156.72;;;-2.01;100.00
11936;BME280;6027;48.576;9.180;2022-12-16T09:29:13;96156.78;;;-1.91;100.00
11936;BME280;6027;48.576;9.180;2022-12-16T09:31:57;96159.06;;;-1.98;100.00
11936;BME280;6027;48.576;9.180;2022-12-16T09:34:41;96159.91;;;-1.97;100.00
11936;BME280;6027;48.576;9.180;2022-12-16T09:37:25;96161.72;;;-1.88;100.00
11936;BME280;6027;48.576;9.180;2022-12-16T09:40:13;96169.31;;;-1.96;100.00
11936;BME280;6027;48.576;9.180;2022-12-16T09:43:12;96167.03;;;-1.79;100.00
11936;BME280;6027;48.576;9.180;2022-12-16T09:46:56;96170.69;;;-1.81;100.00
11936;BME280;6027;48.576;9.180;2022-12-16T09:52:16;96180.81;;;-1.78;100.00
11936;BME280;6027;48.576;9.180;2022-12-16T09:55:03;96184.53;;;-1.71;100.00
11936;BME280;6027;48.576;9.180;2022-12-16T09:57:48;96188.06;;;-1.61;100.00
11936;BME280;6027;48.576;9.180;2022-12-16T10:00:33;96187.78;;;-1.79;100.00
11936;BME280;6027;48.576;9.180;2022-12-16T10:15:28;96192.09;;;-1.68;100.00
11936;BME280;6027;48.576;9.180;2022-12-16T10:18:32;96187.59;;;-1.66;100.00
11936;BME280;6027;48.576;9.180;2022-12-16T10:21:40;96196.31;;;-1.56;100.00
11936;BME280;6027;48.576;9.180;2022-12-16T10:27:48;96199.78;;;-1.46;100.00
11936;BME280;6027;48.576;9.180;2022-12-16T10:30:36;96214.88;;;-1.40;100.00
11936;BME280;6027;48.576;9.180;2022-12-16T10:33:24;96199.72;;;-1.34;100.00
11936;BME280;6027;48.576;9.180;2022-12-16T10:36:17;96202.88;;;-1.31;100.00
11936;BME280;6027;48.576;9.180;2022-12-16T10:39:25;96207.34;;;-1.54;100.00
11936;BME280;6027;48.576;9.180;2022-12-16T10:42:21;96207.50;;;-1.55;100.00
11936;BME280;6027;48.576;9.180;2022-12-16T10:45:20;96206.38;;;-1.42;100.00
11936;BME280;6027;48.576;9.180;2022-12-16T10:48:09;96206.97;;;-1.38;100.00
11936;BME280;6027;48.576;9.180;2022-12-16T10:50:53;96200.50;;;-1.23;100.00
11936;BME280;6027;48.576;9.180;2022-12-16T10:53:37;96202.41;;;-1.25;100.00
11936;BME280;6027;48.576;9.180;2022-12-16T10:56:52;96212.53;;;-1.43;100.00
11936;BME280;6027;48.576;9.180;2022-12-16T10:59:40;96215.59;;;-1.49;100.00
11936;BME280;6027;48.576;9.180;2022-12-16T11:02:26;96214.41;;;-1.45;100.00
11936;BME280;6027;48.576;9.180;2022-12-16T11:08:45;96204.72;;;-1.43;100.00
11936;BME280;6027;48.576;9.180;2022-12-16T11:11:30;96212.03;;;-1.36;100.00
11936;BME280;6027;48.576;9.180;2022-12-16T11:23:26;96220.31;;;-1.43;100.00
11936;BME280;6027;48.576;9.180;2022-12-16T11:26:18;96216.66;;;-1.40;100.00
11936;BME280;6027;48.576;9.180;2022-12-16T11:32:18;96217.91;;;-1.66;100.00
11936;BME280;6027;48.576;9.180;2022-12-16T11:35:08;96217.44;;;-1.60;100.00
11936;BME280;6027;48.576;9.180;2022-12-16T11:37:53;96214.00;;;-1.61;100.00
11936;BME280;6027;48.576;9.180;2022-12-16T11:40:40;96218.50;;;-1.63;100.00
11936;BME280;6027;48.576;9.180;2022-12-16T11:43:26;96222.69;;;-1.51;100.00
11936;BME280;6027;48.576;9.180;2022-12-16T11:46:17;96227.84;;;-1.40;100.00
11936;BME280;6027;48.576;9.180;2022-12-16T11:49:06;96228.81;;;-1.20;100.00
11936;BME280;6027;48.576;9.180;2022-12-16T11:51:56;96232.75;;;-1.25;100.00
11936;BME280;6027;48.576;9.180;2022-12-16T11:55:03;96235.56;;;-1.28;100.00
11936;BME280;6027;48.576;9.180;2022-12-16T11:57:57;96239.91;;;-1.18;100.00
11936;BME280;6027;48.576;9.180;2022-12-16T12:00:53;96246.09;;;-1.30;100.00
11936;BME280;6027;48.576;9.180;2022-12-16T12:03:45;96247.97;;;-1.32;100.00
11936;BME280;6027;48.576;9.180;2022-12-16T12:16:25;96261.34;;;-1.36;100.00
11936;BME280;6027;48.576;9.180;2022-12-16T12:19:19;96259.44;;;-1.34;100.00
11936;BME280;6027;48.576;9.180;2022-12-16T12:22:34;96259.78;;;-1.28;100.00
11936;BME280;6027;48.576;9.180;2022-12-16T12:25:21;96255.28;;;-1.26;100.00
11936;BME280;6027;48.576;9.180;2022-12-16T12:28:27;96262.06;;;-1.14;100.00
11936;BME280;6027;48.576;9.180;2022-12-16T12:31:42;96264.63;;;-1.02;100.00
11936;BME280;6027;48.576;9.180;2022-12-16T12:37:40;96278.56;;;-1.03;100.00
11936;BME280;6027;48.576;9.180;2022-12-16T12:43:25;96283.94;;;-0.95;100.00
11936;BME280;6027;48.576;9.180;2022-12-16T12:46:52;96284.47;;;-0.81;100.00
11936;BME280;6027;48.576;9.180;2022-12-16T12:50:12;96281.88;;;-0.81;100.00
11936;BME280;6027;48.576;9.180;2022-12-16T12:56:08;96286.94;;;-1.00;100.00
11936;BME280;6027;48.576;9.180;2022-12-16T12:59:02;96293.66;;;-0.97;100.00
11936;BME280;6027;48.576;9.180;2022-12-16T13:01:49;96296.06;;;-0.85;100.00
11936;BME280;6027;48.576;9.180;2022-12-16T13:04:36;96300.94;;;-0.71;100.00
11936;BME280;6027;48.576;9.180;2022-12-16T13:07:21;96299.16;;;-0.70;100.00
11936;BME280;6027;48.576;9.180;2022-12-16T13:16:01;96297.47;;;-0.81;100.00
11936;BME280;6027;48.576;9.180;2022-12-16T13:18:46;96296.22;;;-0.77;100.00
11936;BME280;6027;48.576;9.180;2022-12-16T13:27:14;96312.34;;;-0.62;100.00
11936;BME280;6027;48.576;9.180;2022-12-16T13:30:05;96309.19;;;-0.65;100.00
11936;BME280;6027;48.576;9.180;2022-12-16T13:33:04;96315.53;;;-0.58;100.00
11936;BME280;6027;48.576;9.180;2022-12-16T13:35:54;96323.47;;;-0.60;100.00
11936;BME280;6027;48.576;9.180;2022-12-16T13:38:53;96331.38;;;-0.61;100.00
11936;BME280;6027;48.576;9.180;2022-12-16T13:50:36;96352.59;;;-0.56;100.00
11936;BME280;6027;48.576;9.180;2022-12-16T13:53:23;96351.97;;;-0.70;100.00
11936;BME280;6027;48.576;9.180;2022-12-16T13:56:13;96355.16;;;-0.66;100.00
11936;BME280;6027;48.576;9.180;2022-12-16T13:59:04;96354.31;;;-0.66;100.00
11936;BME280;6027;48.576;9.180;2022-12-16T14:01:53;96360.09;;;-0.63;100.00
11936;BME280;6027;48.576;9.180;2022-12-16T14:04:42;96356.78;;;-0.65;100.00
11936;BME280;6027;48.576;9.180;2022-12-16T14:07:29;96371.06;;;-0.59;100.00
11936;BME280;6027;48.576;9.180;2022-12-16T14:10:38;96369.97;;;-0.57;100.00
11936;BME280;6027;48.576;9.180;2022-12-16T14:16:51;96390.34;;;-0.62;100.00
11936;BME280;6027;48.576;9.180;2022-12-16T14:20:02;96393.25;;;-0.55;100.00
11936;BME280;6027;48.576;9.180;2022-12-16T14:25:56;96413.97;;;-0.65;100.00
11936;BME280;6027;48.576;9.180;2022-12-16T14:28:40;96417.88;;;-0.59;100.00
11936;BME280;6027;48.576;9.180;2022-12-16T14:31:29;96413.81;;;-0.52;100.00
11936;BME280;6027;48.576;9.180;2022-12-16T14:34:25;96433.94;;;-0.65;100.00
11936;BME280;6027;48.576;9.180;2022-12-16T14:39:56;96436.69;;;-0.67;100.00
11936;BME280;6027;48.576;9.180;2022-12-16T14:42:41;96434.56;;;-0.73;100.00
11936;BME280;6027;48.576;9.180;2022-12-16T14:45:27;96437.56;;;-0.78;100.00
11936;BME280;6027;48.576;9.180;2022-12-16T14:48:23;96446.06;;;-0.87;99.81
11936;BME280;6027;48.576;9.180;2022-12-16T14:54:28;96450.19;;;-0.84;100.00
11936;BME280;6027;48.576;9.180;2022-12-16T14:57:32;96450.69;;;-0.90;100.00
11936;BME280;6027;48.576;9.180;2022-12-16T15:00:21;96458.00;;;-0.95;100.00
11936;BME280;6027;48.576;9.180;2022-12-16T15:06:15;96468.09;;;-1.02;100.00
11936;BME280;6027;48.576;9.180;2022-12-16T15:09:03;96465.81;;;-0.95;100.00
11936;BME280;6027;48.576;9.180;2022-12-16T15:11:50;96471.81;;;-0.95;100.00
11936;BME280;6027;48.576;9.180;2022-12-16T15:14:37;96479.19;;;-1.00;99.70
11936;BME280;6027;48.576;9.180;2022-12-16T15:20:27;96493.47;;;-1.06;100.00
11936;BME280;6027;48.576;9.180;2022-12-16T15:23:29;96484.13;;;-1.08;100.00
11936;BME280;6027;48.576;9.180;2022-12-16T15:26:23;96489.81;;;-1.14;99.37
11936;BME280;6027;48.576;9.180;2022-12-16T15:29:33;96491.25;;;-1.21;98.48
11936;BME280;6027;48.576;9.180;2022-12-16T15:32:28;96489.34;;;-1.30;97.24
11936;BME280;6027;48.576;9.180;2022-12-16T15:35:24;96499.88;;;-1.21;95.55
11936;BME280;6027;48.576;9.180;2022-12-16T15:38:11;96508.59;;;-1.22;95.58
11936;BME280;6027;48.576;9.180;2022-12-16T15:41:01;96518.63;;;-1.28;95.22
11936;BME280;6027;48.576;9.180;2022-12-16T15:43:46;96509.66;;;-1.24;95.69
11936;BME280;6027;48.576;9.180;2022-12-16T15:46:31;96518.63;;;-1.28;94.87
11936;BME280;6027;48.576;9.180;2022-12-16T15:52:38;96530.78;;;-1.40;95.32
11936;BME280;6027;48.576;9.180;2022-12-16T15:55:39;96538.47;;;-1.38;95.38
11936;BME280;6027;48.576;9.180;2022-12-16T15:58:29;96545.06;;;-1.34;96.79
11936;BME280;6027;48.576;9.180;2022-12-16T16:01:22;96555.44;;;-1.34;97.06
11936;BME280;6027;48.576;9.180;2022-12-16T16:04:26;96553.31;;;-1.29;98.10
11936;BME280;6027;48.576;9.180;2022-12-16T16:07:17;96563.50;;;-1.37;98.20
11936;BME280;6027;48.576;9.180;2022-12-16T16:10:20;96570.56;;;-1.40;97.21
11936;BME280;6027;48.576;9.180;2022-12-16T16:13:09;96575.97;;;-1.43;98.77
11936;BME280;6027;48.576;9.180;2022-12-16T16:15:53;96580.34;;;-1.32;99.38
11936;BME280;6027;48.576;9.180;2022-12-16T16:18:39;96580.34;;;-1.32;99.39
11936;BME280;6027;48.576;9.180;2022-12-16T16:21:23;96581.56;;;-1.36;100.00
11936;BME280;6027;48.576;9.180;2022-12-16T16:24:07;96581.66;;;-1.37;100.00
11936;BME280;6027;48.576;9.180;2022-12-16T16:27:00;96581.06;;;-1.41;100.00
11936;BME280;6027;48.576;9.180;2022-12-16T16:29:45;96588.75;;;-1.40;100.00
11936;BME280;6027;48.576;9.180;2022-12-16T16:32:29;96598.88;;;-1.48;100.00
11936;BME280;6027;48.576;9.180;2022-12-16T16:35:13;96599.56;;;-1.46;100.00
11936;BME280;6027;48.576;9.180;2022-12-16T16:37:57;96609.84;;;-1.55;100.00